Berclair, Texas
Current Conditions -  °F | °C
As of 3:35 AM on Friday 28 Nov 2014 (Local Time) from KBEA Reporting Station
Clear Clear  
Wind Chill: 49°   Ceiling: Unl
Heat Index: 49°   Visibility: 10mi
Dew Point: 49°   Wind: 3mph
Humidity: 100%   Direction: 70°ENE
Pressure: 30.32"   Gusts: NA
Location:  28.53°N, 97.59°W
Report Text: KBEA 280935Z AUTO 07003KT 10SM CLR 10/10 A3032 RMK AO2 T00960096
Loading
Personal Weather Stations






























Interactive Weather Map New forecast layout! Learn more

10-Day Weather Forecast

Advertisements
Track Severe Weather on mobile